Terminal Aerodrome Forecast
Issued by NWS

Current Version | Previous Version | Text Only | Print | Product List | Glossary On
Versions: 1 2 3 4 5 6 7 8 9 10 11 12 13
000
FTUS43 KICT 232300
TAFHUT
TAF
KHUT 232320Z 2400/2424 15013KT P6SM SCT060 BKN100
     FM240400 16010KT P6SM VCSH SCT030 BKN070
     FM241500 18015G24KT P6SM SCT050 BKN100=

USA.gov is the U.S. government's official web portal to all federal, state and local government web resources and services.